Forside
METAR-TAF:

METAR-TAF

Lufthavne :

Key Lake, Saskatchewan, Canada

Breddekreds: 57-15N, længdekreds: 105-37W, højde: 509 m

Aktuelle vejr

Denne rapport blev lavet for 1 time og 14 minutter siden, kl. 16:00 UTC
Vind 12 kt fra sydsydvest med vindstød på up til 21 kt
Temperatur 3°C
Fugtighed 60%
Tryk 1016 hPa
Sigt: 14.5 km
skyfri

METAR: CYKJ 231600Z AUTO 20012G21KT 9SM CLR 03/M04 A3001 RMK SLP190

Tid: 11:14 (17:14 UTC)

Vejrudsigter

Denne rapport blev lavet for 4 timer og 36 minutter siden, kl. 12:38 UTC
Foreløbig gælder fra 23 på 13 UTC til 23 på 24 UTC
Vind 12 kt fra syd
Sigt: 10 km
Brudte skyer i en højde af 15000 ft
ændring
fra 23 på 13 UTC til 23 på 15 UTC
Nogle få skyer i en højde af 15000 ft
Fra 23 på 1800 UTC
Vind 12 kt fra sydsydvest med vindstød på up til 22 kt
Sigt: 10 km
skyfri

TAF: CYKJ 231238Z 2313/2324 19012KT P6SM BKN150 BECMG 2313/2315 FEW150 FM231800 21012G22KT P6SM SKC RMK FCST BASED ON AUTO OBS. NXT FCST BY 231900Z

Vejrobservationer og prognoser fra mere end 4000 lufthavne (METAR og TAF).

De gule og røde prikker repræsenterer de meteorologiske stationer.

Flyt musen over at se navnet på stationen.

Så klik over at se vejr observationer og prognoser.

At skifte det kort: Klik på de grønne knapper med et sort kors for at zoome ind; på den grønne knap med en bindestreg for at zoome ud; eller på de grønne pile for tilstødende kort.


METAR-TAF: